| time (UTC) | temp F | wind direction | speed knots | gust knots | rain 1hr in | rain 24hr in | rain mn in | humidity % | barometer mb |
| 20260502162129 | 63 | 27 | 1.7 | 4.3 | 0.00 | 0.00 | 0.00 | 28 | 1020.9 |
| 20260502161634 | 63 | 27 | 1.7 | 4.3 | 0.00 | 0.00 | 0.00 | 29 | 1020.9 |
| 20260502161138 | 62 | 27 | 1.7 | 3.5 | 0.00 | 0.00 | 0.00 | 31 | 1020.9 |
| 20260502160622 | 62 | 27 | 2.6 | 3.5 | 0.00 | 0.00 | 0.00 | 30 | 1020.9 |
| 20260502160131 | 61 | 27 | 2.6 | 3.5 | 0.00 | 0.00 | 0.00 | 32 | 1020.9 |
| 20260502152123 | 58 | 27 | 1.7 | 2.6 | 0.00 | 0.00 | 0.00 | 36 | 1020.9 |
| 20260502151628 | 57 | 27 | 1.7 | 2.6 | 0.00 | 0.00 | 0.00 | 36 | 1021.0 |
| 20260502151152 | 57 | 27 | 0.9 | 2.6 | 0.00 | 0.00 | 0.00 | 36 | 1021.0 |
| 20260502150636 | 56 | 27 | 1.7 | 2.6 | 0.00 | 0.00 | 0.00 | 36 | 1021.0 |
| 20260502150200 | 56 | 27 | 1.7 | 4.3 | 0.00 | 0.00 | 0.00 | 37 | 1021.0 |
| 20260502130625 | 46 | 27 | 0.9 | 3.5 | 0.00 | 0.00 | 0.00 | 57 | 1020.7 |
| 20260502130124 | 46 | 27 | 0.9 | 1.7 | 0.00 | 0.00 | 0.00 | 56 | 1020.7 |
| 20260502123629 | 47 | 27 | 2.6 | 4.3 | 0.00 | 0.00 | 0.00 | 58 | 1020.5 |
| 20260502123135 | 47 | 27 | 0.0 | 3.5 | 0.00 | 0.00 | 0.00 | 58 | 1020.4 |
| 20260502122639 | 47 | 27 | 0.0 | 1.7 | 0.00 | 0.00 | 0.00 | 57 | 1020.4 |
| 20260502122123 | 48 | 27 | 0.0 | 1.7 | 0.00 | 0.00 | 0.00 | 57 | 1020.4 |
| 20260502121627 | 48 | 27 | 0.9 | 2.6 | 0.00 | 0.00 | 0.00 | 57 | 1020.3 |
| 20260502121132 | 48 | 27 | 1.7 | 2.6 | 0.00 | 0.00 | 0.00 | 57 | 1020.3 |
| 20260502120636 | 48 | 27 | 0.0 | 2.6 | 0.00 | 0.00 | 0.00 | 57 | 1020.3 |
| 20260502120124 | 48 | 27 | 0.9 | 2.6 | 0.00 | 0.00 | 0.00 | 58 | 1020.4 |
| 20260502115648 | 48 | 27 | 2.6 | 2.6 | 0.00 | 0.00 | 0.00 | 60 | 1020.3 |
| 20260502115152 | 48 | 27 | 1.7 | 2.6 | 0.00 | 0.00 | 0.00 | 59 | 1020.3 |
| 20260502114635 | 48 | 27 | 0.9 | 2.6 | 0.00 | 0.00 | 0.00 | 59 | 1020.3 |
| 20260502114138 | 48 | 27 | 0.9 | 2.6 | 0.00 | 0.00 | 0.00 | 59 | 1020.3 |
| 20260502113623 | 48 | 27 | 0.0 | 2.6 | 0.00 | 0.00 | 0.00 | 58 | 1020.3 |
| 20260502113147 | 48 | 27 | 1.7 | 2.6 | 0.00 | 0.00 | 0.00 | 58 | 1020.3 |
| 20260502112650 | 48 | 27 | 0.9 | 1.7 | 0.00 | 0.00 | 0.00 | 58 | 1020.4 |
| 20260502112154 | 48 | 27 | 1.7 | 1.7 | 0.00 | 0.00 | 0.00 | 59 | 1020.4 |
| 20260502111636 | 48 | 27 | 0.9 | 2.6 | 0.00 | 0.00 | 0.00 | 59 | 1020.6 |
| 20260502111121 | 48 | 27 | 1.7 | 2.6 | 0.00 | 0.00 | 0.00 | 59 | 1020.6 |
| 20260502110625 | 48 | 27 | 1.7 | 2.6 | 0.00 | 0.00 | 0.00 | 58 | 1020.6 |
| 20260502110130 | 48 | 27 | 1.7 | 3.5 | 0.00 | 0.00 | 0.00 | 58 | 1020.7 |
| 20260502105634 | 48 | 27 | 0.9 | 3.5 | 0.00 | 0.00 | 0.00 | 57 | 1020.7 |
| 20260502105159 | 49 | 27 | 0.9 | 3.5 | 0.00 | 0.00 | 0.00 | 55 | 1020.7 |
| 20260502104625 | 49 | 27 | 1.7 | 3.5 | 0.00 | 0.00 | 0.00 | 53 | 1020.7 |
| 20260502104130 | 49 | 27 | 1.7 | 3.5 | 0.00 | 0.00 | 0.00 | 53 | 1020.7 |
| 20260502103634 | 49 | 27 | 1.7 | 3.5 | 0.00 | 0.00 | 0.00 | 52 | 1020.6 |
| 20260502103139 | 49 | 27 | 2.6 | 4.3 | 0.00 | 0.00 | 0.00 | 51 | 1020.6 |
| 20260502102642 | 49 | 27 | 3.5 | 4.3 | 0.00 | 0.00 | 0.00 | 51 | 1020.5 |
| 20260502102147 | 48 | 27 | 3.5 | 3.5 | 0.00 | 0.00 | 0.00 | 51 | 1020.6 |
| 20260502101134 | 49 | 27 | 1.7 | 4.3 | 0.00 | 0.00 | 0.00 | 49 | 1020.4 |
| 20260502100637 | 49 | 27 | 2.6 | 4.3 | 0.00 | 0.00 | 0.00 | 49 | 1020.3 |
| 20260502100122 | 49 | 27 | 2.6 | 3.5 | 0.00 | 0.00 | 0.00 | 47 | 1020.3 |
| 20260502091127 | 49 | 27 | 1.7 | 3.5 | 0.00 | 0.00 | 0.00 | 46 | 1020.1 |
| 20260502090632 | 49 | 27 | 1.7 | 3.5 | 0.00 | 0.00 | 0.00 | 48 | 1020.1 |
| 20260502090136 | 49 | 27 | 2.6 | 3.5 | 0.00 | 0.00 | 0.00 | 47 | 1020.2 |
| 20260502071134 | 52 | 27 | 0.0 | 4.3 | 0.00 | 0.00 | 0.00 | 52 | 1020.1 |
| 20260502070658 | 52 | 27 | 2.6 | 4.3 | 0.00 | 0.00 | 0.00 | 52 | 1020.2 |
| 20260502070122 | 52 | 27 | 1.7 | 4.3 | 0.00 | 0.00 | 0.00 | 51 | 1020.1 |
| 20260502065625 | 52 | 27 | 0.9 | 3.5 | 0.00 | 0.00 | 0.00 | 51 | 1020.1 |
| 20260502065131 | 52 | 27 | 1.7 | 3.5 | 0.00 | 0.00 | 0.00 | 52 | 1020.1 |
| 20260502064634 | 52 | 27 | 1.7 | 2.6 | 0.00 | 0.00 | 0.00 | 53 | 1020.1 |
| 20260502064139 | 52 | 27 | 0.9 | 4.3 | 0.00 | 0.00 | 0.00 | 52 | 1020.1 |
| 20260502063627 | 52 | 27 | 3.5 | 4.3 | 0.00 | 0.01 | 0.00 | 51 | 1020.1 |
| 20260502063132 | 52 | 27 | 2.6 | 4.3 | 0.00 | 0.01 | 0.00 | 50 | 1020.3 |
| 20260502062635 | 53 | 27 | 1.7 | 2.6 | 0.00 | 0.01 | 0.00 | 48 | 1020.1 |
| 20260502062139 | 53 | 27 | 0.9 | 2.6 | 0.00 | 0.01 | 0.00 | 48 | 1020.1 |
| 20260502061623 | 53 | 27 | 0.9 | 2.6 | 0.00 | 0.01 | 0.00 | 48 | 1020.1 |
| 20260502061127 | 53 | 27 | 0.9 | 2.6 | 0.00 | 0.01 | 0.00 | 47 | 1020.1 |
| 20260502060631 | 54 | 27 | 0.0 | 4.3 | 0.00 | 0.01 | 0.00 | 46 | 1020.1 |
| 20260502060136 | 54 | 27 | 3.5 | 4.3 | 0.00 | 0.01 | 0.00 | 46 | 1020.2 |
| 20260502055639 | 55 | 27 | 1.7 | 4.3 | 0.00 | 0.01 | 0.00 | 44 | 1020.1 |
| 20260502055144 | 55 | 27 | 0.9 | 2.6 | 0.00 | 0.01 | 0.00 | 43 | 1020.0 |
| 20260502054646 | 55 | 27 | 1.7 | 2.6 | 0.00 | 0.01 | 0.00 | 43 | 1020.0 |
| 20260502054131 | 55 | 27 | 1.7 | 2.6 | 0.00 | 0.01 | 0.00 | 43 | 1020.0 |
| 20260502053654 | 55 | 27 | 1.7 | 2.6 | 0.00 | 0.01 | 0.01 | 45 | 1019.9 |
| 20260502053122 | 55 | 27 | 0.0 | 1.7 | 0.00 | 0.01 | 0.01 | 43 | 1019.9 |
| 20260502052626 | 55 | 27 | 0.0 | 2.6 | 0.00 | 0.01 | 0.01 | 44 | 1019.9 |
| 20260502052130 | 56 | 27 | 0.9 | 2.6 | 0.00 | 0.01 | 0.01 | 44 | 1020.0 |
| 20260502051634 | 56 | 27 | 0.0 | 2.6 | 0.00 | 0.01 | 0.01 | 45 | 1019.9 |
| 20260502051138 | 56 | 27 | 1.7 | 2.6 | 0.00 | 0.01 | 0.01 | 45 | 1019.9 |
| 20260502050622 | 56 | 27 | 0.9 | 1.7 | 0.00 | 0.01 | 0.01 | 44 | 1019.9 |
| 20260502050127 | 56 | 27 | 0.9 | 1.7 | 0.00 | 0.01 | 0.01 | 45 | 1019.9 |
| 20260502045631 | 55 | 27 | 0.9 | 1.7 | 0.00 | 0.01 | 0.01 | 45 | 1020.0 |
| 20260502045136 | 55 | 27 | 0.9 | 1.7 | 0.00 | 0.01 | 0.01 | 44 | 1020.0 |
| 20260502044620 | 55 | 27 | 0.9 | 2.6 | 0.00 | 0.01 | 0.01 | 44 | 1020.0 |
| 20260502044124 | 55 | 27 | 1.7 | 3.5 | 0.00 | 0.01 | 0.01 | 43 | 1020.0 |
| 20260502043632 | 56 | 27 | 1.7 | 3.5 | 0.00 | 0.01 | 0.01 | 43 | 1020.0 |
| 20260502043137 | 56 | 27 | 0.9 | 3.5 | 0.00 | 0.01 | 0.01 | 42 | 1020.1 |
| 20260502042641 | 57 | 27 | 0.0 | 3.5 | 0.00 | 0.01 | 0.01 | 43 | 1020.1 |
| 20260502042145 | 57 | 27 | 2.6 | 3.5 | 0.00 | 0.01 | 0.01 | 43 | 1020.1 |
| 20260502041628 | 57 | 27 | 1.7 | 2.6 | 0.00 | 0.01 | 0.01 | 42 | 1020.0 |
| 20260502041153 | 58 | 27 | 0.9 | 1.7 | 0.00 | 0.01 | 0.01 | 42 | 1019.9 |
| 20260502040636 | 58 | 27 | 0.9 | 1.7 | 0.00 | 0.01 | 0.01 | 41 | 1019.9 |
| 20260502040121 | 58 | 27 | 0.9 | 1.7 | 0.00 | 0.01 | 0.01 | 42 | 1019.8 |
| 20260502035624 | 58 | 27 | 0.9 | 1.7 | 0.00 | 0.01 | 0.01 | 42 | 1019.8 |
| 20260502035129 | 58 | 27 | 0.9 | 2.6 | 0.00 | 0.01 | 0.01 | 42 | 1019.8 |
| 20260502034633 | 58 | 27 | 0.9 | 2.6 | 0.00 | 0.01 | 0.01 | 42 | 1019.8 |
| 20260502034138 | 58 | 27 | 0.9 | 2.6 | 0.00 | 0.01 | 0.01 | 42 | 1019.7 |
| 20260502033622 | 58 | 27 | 0.9 | 2.6 | 0.00 | 0.01 | 0.01 | 41 | 1019.7 |
| 20260502033147 | 58 | 27 | 0.9 | 3.5 | 0.00 | 0.01 | 0.01 | 40 | 1019.6 |
| 20260502032649 | 59 | 27 | 2.6 | 3.5 | 0.00 | 0.01 | 0.01 | 39 | 1019.5 |
| 20260502032137 | 59 | 27 | 2.6 | 3.5 | 0.00 | 0.01 | 0.01 | 38 | 1019.5 |
| 20260502031621 | 60 | 27 | 1.7 | 3.5 | 0.00 | 0.01 | 0.01 | 37 | 1019.4 |
| 20260502031146 | 60 | 27 | 1.7 | 3.5 | 0.00 | 0.01 | 0.01 | 36 | 1019.3 |
| 20260502030629 | 61 | 27 | 0.9 | 2.6 | 0.00 | 0.01 | 0.01 | 36 | 1019.2 |
| 20260502030134 | 61 | 27 | 0.9 | 3.5 | 0.00 | 0.01 | 0.01 | 36 | 1019.2 |
| 20260502025658 | 61 | 27 | 2.6 | 4.3 | 0.00 | 0.01 | 0.01 | 35 | 1019.0 |
| 20260502025121 | 61 | 27 | 2.6 | 4.3 | 0.00 | 0.01 | 0.01 | 33 | 1019.0 |
| 20260502024625 | 61 | 27 | 0.9 | 5.2 | 0.00 | 0.01 | 0.01 | 32 | 1019.0 |
| 20260502024130 | 61 | 27 | 2.6 | 5.2 | 0.00 | 0.01 | 0.01 | 32 | 1019.0 |
| 20260502023633 | 61 | 27 | 3.5 | 4.3 | 0.00 | 0.01 | 0.01 | 32 | 1019.0 |
| 20260502023138 | 61 | 27 | 3.5 | 4.3 | 0.00 | 0.01 | 0.01 | 33 | 1018.9 |
| 20260502022622 | 61 | 27 | 2.6 | 7.0 | 0.00 | 0.01 | 0.01 | 34 | 1019.0 |
| 20260502022130 | 61 | 27 | 3.5 | 7.0 | 0.00 | 0.01 | 0.01 | 34 | 1018.9 |
| 20260502021635 | 62 | 27 | 3.5 | 7.0 | 0.00 | 0.01 | 0.01 | 34 | 1018.9 |
| 20260502021139 | 62 | 27 | 0.0 | 2.6 | 0.00 | 0.01 | 0.01 | 34 | 1018.9 |
| 20260502020623 | 62 | 27 | 0.9 | 2.6 | 0.00 | 0.01 | 0.01 | 35 | 1018.8 |
| 20260502020128 | 62 | 27 | 0.0 | 3.5 | 0.00 | 0.01 | 0.01 | 36 | 1018.8 |
| 20260502015632 | 62 | 27 | 0.9 | 5.2 | 0.00 | 0.01 | 0.01 | 36 | 1018.7 |
| 20260502015157 | 62 | 27 | 2.6 | 7.8 | 0.00 | 0.01 | 0.01 | 36 | 1018.6 |
| 20260502014700 | 62 | 27 | 4.3 | 8.7 | 0.00 | 0.01 | 0.01 | 36 | 1018.5 |
| 20260502014123 | 62 | 27 | 5.2 | 11.3 | 0.00 | 0.01 | 0.01 | 37 | 1018.5 |
| 20260502013628 | 63 | 27 | 6.1 | 11.3 | 0.00 | 0.01 | 0.01 | 37 | 1018.4 |
| 20260502013132 | 63 | 27 | 6.1 | 13.9 | 0.00 | 0.01 | 0.01 | 36 | 1018.4 |
| 20260502012636 | 63 | 27 | 8.7 | 13.9 | 0.00 | 0.01 | 0.01 | 36 | 1018.3 |
| 20260502012141 | 63 | 27 | 9.6 | 13.0 | 0.00 | 0.01 | 0.01 | 35 | 1018.2 |
| 20260502011628 | 64 | 27 | 9.6 | 13.9 | 0.00 | 0.01 | 0.01 | 35 | 1018.2 |
| 20260502011133 | 64 | 27 | 10.4 | 13.9 | 0.00 | 0.01 | 0.01 | 36 | 1018.1 |
| 20260502010636 | 64 | 27 | 8.7 | 13.9 | 0.00 | 0.01 | 0.01 | 34 | 1018.2 |
| 20260502010121 | 65 | 27 | 7.8 | 13.9 | 0.00 | 0.01 | 0.01 | 34 | 1018.2 |
| 20260502005645 | 65 | 27 | 8.7 | 13.0 | 0.00 | 0.01 | 0.01 | 30 | 1018.2 |
| 20260502005129 | 65 | 27 | 7.8 | 12.2 | 0.00 | 0.01 | 0.01 | 30 | 1018.2 |
| 20260502004633 | 66 | 27 | 7.8 | 14.8 | 0.00 | 0.01 | 0.01 | 30 | 1018.1 |
| 20260502004138 | 65 | 27 | 7.8 | 13.9 | 0.00 | 0.01 | 0.01 | 28 | 1018.1 |
| 20260502003621 | 66 | 27 | 9.6 | 13.9 | 0.00 | 0.01 | 0.01 | 27 | 1018.1 |
| 20260502003147 | 65 | 27 | 9.6 | 17.4 | 0.00 | 0.01 | 0.01 | 28 | 1018.2 |
| 20260502002650 | 65 | 27 | 10.4 | 17.4 | 0.00 | 0.01 | 0.01 | 28 | 1018.1 |
| 20260502002153 | 66 | 27 | 10.4 | 14.8 | 0.00 | 0.01 | 0.01 | 28 | 1018.3 |
| 20260502001636 | 66 | 27 | 7.8 | 13.9 | 0.00 | 0.01 | 0.01 | 29 | 1018.2 |
| 20260502001121 | 66 | 27 | 7.8 | 15.6 | 0.00 | 0.01 | 0.01 | 28 | 1018.3 |
| 20260502000644 | 66 | 27 | 11.3 | 15.6 | 0.00 | 0.01 | 0.01 | 28 | 1018.3 |
| 20260502000149 | 66 | 27 | 9.6 | 15.6 | 0.00 | 0.01 | 0.01 | 27 | 1018.3 |
| 20260501235635 | 66 | 27 | 11.3 | 15.6 | 0.00 | 0.01 | 0.01 | 28 | 1018.4 |
| 20260501235139 | 66 | 27 | 9.6 | 15.6 | 0.00 | 0.01 | 0.01 | 27 | 1018.3 |
| 20260501234623 | 66 | 27 | 10.4 | 14.8 | 0.00 | 0.01 | 0.01 | 27 | 1018.3 |
| 20260501234127 | 66 | 27 | 9.6 | 16.5 | 0.00 | 0.01 | 0.01 | 27 | 1018.4 |
| 20260501233632 | 66 | 27 | 11.3 | 16.5 | 0.00 | 0.01 | 0.01 | 26 | 1018.4 |
| 20260501233136 | 66 | 27 | 9.6 | 15.6 | 0.00 | 0.01 | 0.01 | 26 | 1018.4 |
| 20260501232701 | 66 | 27 | 9.6 | 15.6 | 0.00 | 0.01 | 0.01 | 26 | 1018.4 |
| 20260501232123 | 66 | 27 | 9.6 | 15.6 | 0.00 | 0.01 | 0.01 | 26 | 1018.4 |
| 20260501231628 | 66 | 27 | 8.7 | 14.8 | 0.00 | 0.01 | 0.01 | 27 | 1018.5 |
| 20260501231132 | 66 | 27 | 10.4 | 18.2 | 0.00 | 0.01 | 0.01 | 26 | 1018.6 |
| 20260501230657 | 66 | 27 | 12.2 | 18.2 | 0.00 | 0.01 | 0.01 | 25 | 1018.6 |
| 20260501230120 | 66 | 27 | 8.7 | 15.6 | 0.00 | 0.01 | 0.01 | 27 | 1018.6 |
| 20260501225629 | 65 | 27 | 9.6 | 17.4 | 0.00 | 0.01 | 0.01 | 26 | 1018.6 |
| 20260501225132 | 65 | 27 | 9.6 | 17.4 | 0.00 | 0.01 | 0.01 | 26 | 1018.6 |
| 20260501224638 | 66 | 27 | 9.6 | 16.5 | 0.00 | 0.01 | 0.01 | 26 | 1018.7 |
| 20260501224121 | 66 | 27 | 8.7 | 16.5 | 0.00 | 0.01 | 0.01 | 26 | 1018.7 |
| 20260501223626 | 66 | 27 | 11.3 | 15.6 | 0.00 | 0.01 | 0.01 | 27 | 1018.7 |
| 20260501223130 | 66 | 27 | 11.3 | 15.6 | 0.00 | 0.01 | 0.01 | 27 | 1018.8 |
| 20260501222635 | 66 | 27 | 10.4 | 15.6 | 0.00 | 0.01 | 0.01 | 26 | 1018.9 |
| 20260501222139 | 66 | 27 | 9.6 | 15.6 | 0.00 | 0.01 | 0.01 | 26 | 1018.9 |
| 20260501221624 | 66 | 27 | 8.7 | 15.6 | 0.00 | 0.01 | 0.01 | 28 | 1019.0 |
| 20260501221127 | 65 | 27 | 10.4 | 15.6 | 0.00 | 0.01 | 0.01 | 27 | 1019.0 |
| 20260501220632 | 65 | 27 | 9.6 | 18.2 | 0.00 | 0.01 | 0.01 | 29 | 1019.2 |
| 20260501220140 | 65 | 27 | 8.7 | 18.2 | 0.00 | 0.01 | 0.01 | 28 | 1019.2 |
| 20260501215624 | 66 | 27 | 9.6 | 14.8 | 0.00 | 0.01 | 0.01 | 26 | 1019.2 |
| 20260501215128 | 66 | 27 | 9.6 | 15.6 | 0.00 | 0.01 | 0.01 | 27 | 1019.2 |
| 20260501214633 | 66 | 27 | 11.3 | 15.6 | 0.00 | 0.01 | 0.01 | 26 | 1019.2 |
| 20260501214137 | 66 | 27 | 8.7 | 16.5 | 0.00 | 0.01 | 0.01 | 26 | 1019.3 |
| 20260501213621 | 65 | 27 | 10.4 | 16.5 | 0.00 | 0.01 | 0.01 | 27 | 1019.3 |
| 20260501213125 | 65 | 27 | 10.4 | 17.4 | 0.00 | 0.01 | 0.01 | 28 | 1019.3 |
| 20260501212630 | 65 | 27 | 13.0 | 17.4 | 0.00 | 0.01 | 0.01 | 28 | 1019.3 |
| 20260501212134 | 65 | 27 | 10.4 | 17.4 | 0.00 | 0.01 | 0.01 | 28 | 1019.2 |
| 20260501211659 | 65 | 27 | 11.3 | 17.4 | 0.00 | 0.01 | 0.01 | 27 | 1019.3 |
| 20260501211122 | 66 | 27 | 11.3 | 17.4 | 0.00 | 0.01 | 0.01 | 28 | 1019.3 |
| 20260501210631 | 65 | 27 | 8.7 | 18.2 | 0.00 | 0.01 | 0.01 | 28 | 1019.4 |
| 20260501210134 | 65 | 27 | 9.6 | 18.2 | 0.00 | 0.01 | 0.01 | 28 | 1019.4 |
| 20260501205640 | 65 | 27 | 8.7 | 14.8 | 0.00 | 0.01 | 0.01 | 28 | 1019.4 |
| 20260501205123 | 65 | 27 | 10.4 | 15.6 | 0.00 | 0.01 | 0.01 | 27 | 1019.4 |
| 20260501204628 | 65 | 27 | 11.3 | 15.6 | 0.00 | 0.01 | 0.01 | 26 | 1019.5 |
| 20260501204132 | 65 | 27 | 9.6 | 15.6 | 0.00 | 0.01 | 0.01 | 28 | 1019.4 |
| 20260501203637 | 65 | 27 | 10.4 | 15.6 | 0.00 | 0.01 | 0.01 | 26 | 1019.5 |
| 20260501203120 | 65 | 27 | 8.7 | 13.0 | 0.00 | 0.01 | 0.01 | 25 | 1019.3 |
| 20260501202645 | 65 | 27 | 6.1 | 14.8 | 0.00 | 0.01 | 0.01 | 25 | 1019.4 |
| 20260501202128 | 65 | 27 | 8.7 | 14.8 | 0.00 | 0.01 | 0.01 | 25 | 1019.5 |
| 20260501201653 | 65 | 27 | 7.0 | 13.9 | 0.00 | 0.01 | 0.01 | 26 | 1019.5 |
| 20260501201136 | 65 | 27 | 8.7 | 16.5 | 0.00 | 0.01 | 0.01 | 26 | 1019.5 |
| 20260501200625 | 65 | 27 | 7.8 | 13.9 | 0.00 | 0.01 | 0.01 | 25 | 1019.5 |
| 20260501200129 | 65 | 27 | 9.6 | 15.6 | 0.00 | 0.01 | 0.01 | 25 | 1019.4 |
| 20260501195634 | 64 | 27 | 10.4 | 15.6 | 0.00 | 0.01 | 0.01 | 26 | 1019.5 |
| 20260501195138 | 64 | 27 | 8.7 | 14.8 | 0.00 | 0.01 | 0.01 | 25 | 1019.5 |
| 20260501194622 | 64 | 27 | 8.7 | 15.6 | 0.00 | 0.01 | 0.01 | 26 | 1019.5 |
| 20260501194146 | 64 | 27 | 10.4 | 15.6 | 0.00 | 0.01 | 0.01 | 25 | 1019.6 |
| 20260501193630 | 64 | 27 | 5.2 | 13.0 | 0.00 | 0.01 | 0.01 | 23 | 1019.6 |
| 20260501193134 | 64 | 27 | 7.8 | 13.0 | 0.00 | 0.01 | 0.01 | 22 | 1019.7 |
| 20260501192659 | 64 | 27 | 5.2 | 13.0 | 0.00 | 0.01 | 0.01 | 22 | 1019.8 |
| 20260501192142 | 64 | 27 | 6.1 | 11.3 | 0.00 | 0.01 | 0.01 | 23 | 1019.9 |
| 20260501191625 | 65 | 27 | 7.8 | 11.3 | 0.00 | 0.01 | 0.01 | 21 | 1019.9 |
| 20260501191150 | 64 | 27 | 5.2 | 11.3 | 0.00 | 0.01 | 0.01 | 24 | 1020.0 |
| 20260501190633 | 65 | 27 | 7.8 | 11.3 | 0.00 | 0.01 | 0.01 | 24 | 1020.1 |
| 20260501190137 | 65 | 27 | 6.1 | 10.4 | 0.00 | 0.01 | 0.01 | 22 | 1020.2 |
| 20260501185626 | 67 | 27 | 2.6 | 7.8 | 0.00 | 0.01 | 0.01 | 18 | 1020.3 |
| 20260501185130 | 65 | 27 | 4.3 | 12.2 | 0.00 | 0.01 | 0.01 | 19 | 1020.3 |
| 20260501184635 | 65 | 27 | 5.2 | 12.2 | 0.00 | 0.01 | 0.01 | 19 | 1020.4 |
| 20260501184139 | 65 | 27 | 6.1 | 13.0 | 0.00 | 0.01 | 0.01 | 19 | 1020.5 |
| 20260501183623 | 66 | 27 | 6.1 | 13.0 | 0.00 | 0.01 | 0.01 | 20 | 1020.6 |
| 20260501183127 | 65 | 27 | 4.3 | 8.7 | 0.00 | 0.01 | 0.01 | 21 | 1020.5 |
| 20260501182632 | 65 | 27 | 6.1 | 13.0 | 0.00 | 0.01 | 0.01 | 20 | 1020.5 |
| 20260501182136 | 65 | 27 | 5.2 | 13.0 | 0.00 | 0.01 | 0.01 | 20 | 1020.5 |
| 20260501181621 | 65 | 27 | 7.0 | 10.4 | 0.00 | 0.01 | 0.01 | 21 | 1020.5 |
| 20260501181125 | 64 | 27 | 4.3 | 13.9 | 0.00 | 0.01 | 0.01 | 20 | 1020.6 |
| 20260501180629 | 64 | 27 | 7.0 | 13.9 | 0.00 | 0.01 | 0.01 | 20 | 1020.6 |
| 20260501180137 | 64 | 27 | 7.0 | 13.9 | 0.00 | 0.01 | 0.01 | 21 | 1020.6 |
| 20260501175642 | 63 | 27 | 7.8 | 15.6 | 0.00 | 0.01 | 0.01 | 21 | 1020.7 |
| 20260501175145 | 62 | 27 | 7.8 | 15.6 | 0.00 | 0.01 | 0.01 | 22 | 1020.8 |
| 20260501174629 | 62 | 27 | 7.8 | 19.1 | 0.00 | 0.01 | 0.01 | 23 | 1020.7 |
| 20260501174133 | 61 | 27 | 9.6 | 19.1 | 0.00 | 0.01 | 0.01 | 22 | 1020.8 |
| 20260501173638 | 61 | 27 | 10.4 | 14.8 | 0.00 | 0.01 | 0.01 | 22 | 1020.8 |
| 20260501173121 | 61 | 27 | 8.7 | 14.8 | 0.00 | 0.01 | 0.01 | 22 | 1020.9 |
| 20260501172646 | 61 | 27 | 7.0 | 16.5 | 0.00 | 0.01 | 0.01 | 21 | 1020.9 |
| 20260501172150 | 61 | 27 | 12.2 | 19.1 | 0.00 | 0.01 | 0.01 | 20 | 1021.0 |
| 20260501171653 | 61 | 27 | 10.4 | 16.5 | 0.00 | 0.01 | 0.01 | 23 | 1021.0 |
| 20260501171156 | 61 | 27 | 8.7 | 15.6 | 0.00 | 0.01 | 0.01 | 23 | 1021.0 |
| 20260501170619 | 60 | 27 | 11.3 | 16.5 | 0.00 | 0.01 | 0.01 | 22 | 1021.1 |
| 20260501170124 | 60 | 27 | 11.3 | 19.1 | 0.00 | 0.01 | 0.01 | 22 | 1021.0 |
| 20260501165628 | 59 | 27 | 7.8 | 19.1 | 0.00 | 0.01 | 0.01 | 23 | 1020.9 |
| 20260501165133 | 59 | 27 | 10.4 | 19.1 | 0.00 | 0.01 | 0.01 | 23 | 1021.0 |
| 20260501164621 | 59 | 27 | 11.3 | 20.9 | 0.00 | 0.01 | 0.01 | 23 | 1021.0 |
| 20260501164125 | 59 | 27 | 10.4 | 20.0 | 0.00 | 0.01 | 0.01 | 23 | 1021.0 |
| 20260501163630 | 59 | 27 | 12.2 | 20.0 | 0.00 | 0.01 | 0.01 | 24 | 1021.0 |
| 20260501163134 | 59 | 27 | 11.3 | 21.7 | 0.00 | 0.01 | 0.01 | 23 | 1021.0 |
| 20260501162639 | 59 | 27 | 15.6 | 21.7 | 0.00 | 0.01 | 0.01 | 24 | 1021.0 |